sensor_id;sensor_type;location;lat;lon;timestamp;pressure;altitude;pressure_sealevel;temperature
7389;BMP180;3735;50.136;11.062;2023-02-28T00:01:29;99244.00;;;-2.30
7389;BMP180;3735;50.136;11.062;2023-02-28T00:03:55;99236.00;;;-2.10
7389;BMP180;3735;50.136;11.062;2023-02-28T00:06:21;99210.00;;;-2.00
7389;BMP180;3735;50.136;11.062;2023-02-28T00:08:47;99232.00;;;-2.00
7389;BMP180;3735;50.136;11.062;2023-02-28T00:11:15;99232.00;;;-1.80
7389;BMP180;3735;50.136;11.062;2023-02-28T00:13:45;99210.00;;;-1.90
7389;BMP180;3735;50.136;11.062;2023-02-28T00:16:18;99230.00;;;-1.90
7389;BMP180;3735;50.136;11.062;2023-02-28T00:18:44;99203.00;;;-1.90
7389;BMP180;3735;50.136;11.062;2023-02-28T00:21:10;99212.00;;;-1.80
7389;BMP180;3735;50.136;11.062;2023-02-28T00:23:36;99216.00;;;-1.80
7389;BMP180;3735;50.136;11.062;2023-02-28T00:26:03;99214.00;;;-1.80
7389;BMP180;3735;50.136;11.062;2023-02-28T00:28:29;99208.00;;;-1.80
7389;BMP180;3735;50.136;11.062;2023-02-28T00:30:54;99222.00;;;-2.00
7389;BMP180;3735;50.136;11.062;2023-02-28T00:33:21;99222.00;;;-1.90
7389;BMP180;3735;50.136;11.062;2023-02-28T00:35:46;99215.00;;;-1.90
7389;BMP180;3735;50.136;11.062;2023-02-28T00:38:14;99218.00;;;-2.00
7389;BMP180;3735;50.136;11.062;2023-02-28T00:40:41;99215.00;;;-2.10
7389;BMP180;3735;50.136;11.062;2023-02-28T00:43:07;99219.00;;;-2.20
7389;BMP180;3735;50.136;11.062;2023-02-28T00:45:32;99219.00;;;-2.40
7389;BMP180;3735;50.136;11.062;2023-02-28T00:47:58;99224.00;;;-2.50
7389;BMP180;3735;50.136;11.062;2023-02-28T00:50:24;99233.00;;;-2.50
7389;BMP180;3735;50.136;11.062;2023-02-28T00:52:50;99221.00;;;-2.50
7389;BMP180;3735;50.136;11.062;2023-02-28T00:55:16;99219.00;;;-2.70
7389;BMP180;3735;50.136;11.062;2023-02-28T00:57:42;99234.00;;;-2.80
7389;BMP180;3735;50.136;11.062;2023-02-28T01:00:08;99234.00;;;-2.80
7389;BMP180;3735;50.136;11.062;2023-02-28T01:02:34;99228.00;;;-2.80
7389;BMP180;3735;50.136;11.062;2023-02-28T01:05:00;99215.00;;;-2.90
7389;BMP180;3735;50.136;11.062;2023-02-28T01:07:26;99218.00;;;-3.00
7389;BMP180;3735;50.136;11.062;2023-02-28T01:09:52;99230.00;;;-2.90
7389;BMP180;3735;50.136;11.062;2023-02-28T01:12:17;99226.00;;;-3.00
7389;BMP180;3735;50.136;11.062;2023-02-28T01:14:43;99215.00;;;-3.60
7389;BMP180;3735;50.136;11.062;2023-02-28T01:17:09;99217.00;;;-3.20
7389;BMP180;3735;50.136;11.062;2023-02-28T01:19:35;99218.00;;;-3.20
7389;BMP180;3735;50.136;11.062;2023-02-28T01:22:04;99223.00;;;-3.30
7389;BMP180;3735;50.136;11.062;2023-02-28T01:24:30;99220.00;;;-3.30
7389;BMP180;3735;50.136;11.062;2023-02-28T01:26:56;99216.00;;;-3.20
7389;BMP180;3735;50.136;11.062;2023-02-28T01:29:22;99219.00;;;-3.20
7389;BMP180;3735;50.136;11.062;2023-02-28T01:31:47;99191.00;;;-3.20
7389;BMP180;3735;50.136;11.062;2023-02-28T01:34:13;99210.00;;;-3.20
7389;BMP180;3735;50.136;11.062;2023-02-28T01:36:39;99210.00;;;-3.30
7389;BMP180;3735;50.136;11.062;2023-02-28T01:39:05;99212.00;;;-3.30
7389;BMP180;3735;50.136;11.062;2023-02-28T01:41:33;99208.00;;;-3.60
7389;BMP180;3735;50.136;11.062;2023-02-28T01:47:11;99195.00;;;-3.30
7389;BMP180;3735;50.136;11.062;2023-02-28T01:49:37;99195.00;;;-3.30
7389;BMP180;3735;50.136;11.062;2023-02-28T01:52:03;99196.00;;;-3.30
7389;BMP180;3735;50.136;11.062;2023-02-28T01:54:34;99190.00;;;-3.40
7389;BMP180;3735;50.136;11.062;2023-02-28T01:57:10;99191.00;;;-3.40
7389;BMP180;3735;50.136;11.062;2023-02-28T01:59:43;99191.00;;;-3.40
7389;BMP180;3735;50.136;11.062;2023-02-28T02:02:17;99181.00;;;-3.40
7389;BMP180;3735;50.136;11.062;2023-02-28T02:05:11;99185.00;;;-3.40
7389;BMP180;3735;50.136;11.062;2023-02-28T02:07:45;99172.00;;;-3.30
7389;BMP180;3735;50.136;11.062;2023-02-28T02:10:47;99173.00;;;-3.30
7389;BMP180;3735;50.136;11.062;2023-02-28T02:19:50;99158.00;;;-2.90
7389;BMP180;3735;50.136;11.062;2023-02-28T02:25:54;99168.00;;;-2.70
7389;BMP180;3735;50.136;11.062;2023-02-28T02:37:34;99153.00;;;-2.40
7389;BMP180;3735;50.136;11.062;2023-02-28T02:40:19;99139.00;;;-2.50
7389;BMP180;3735;50.136;11.062;2023-02-28T02:45:23;99160.00;;;-2.60
7389;BMP180;3735;50.136;11.062;2023-02-28T02:47:51;99147.00;;;-2.70
7389;BMP180;3735;50.136;11.062;2023-02-28T02:50:36;99149.00;;;-2.70
7389;BMP180;3735;50.136;11.062;2023-02-28T02:53:08;99153.00;;;-2.70
7389;BMP180;3735;50.136;11.062;2023-02-28T02:55:40;99159.00;;;-2.90
7389;BMP180;3735;50.136;11.062;2023-02-28T02:58:15;99149.00;;;-3.00
7389;BMP180;3735;50.136;11.062;2023-02-28T03:00:47;99159.00;;;-3.00
7389;BMP180;3735;50.136;11.062;2023-02-28T03:03:16;99154.00;;;-3.00
7389;BMP180;3735;50.136;11.062;2023-02-28T03:06:00;99164.00;;;-3.00
7389;BMP180;3735;50.136;11.062;2023-02-28T03:08:28;99163.00;;;-3.10
7389;BMP180;3735;50.136;11.062;2023-02-28T03:11:03;99169.00;;;-3.20
7389;BMP180;3735;50.136;11.062;2023-02-28T03:14:06;99168.00;;;-3.20
7389;BMP180;3735;50.136;11.062;2023-02-28T03:17:18;99164.00;;;-3.30
7389;BMP180;3735;50.136;11.062;2023-02-28T03:20:17;99174.00;;;-3.30
7389;BMP180;3735;50.136;11.062;2023-02-28T03:23:07;99176.00;;;-3.40
7389;BMP180;3735;50.136;11.062;2023-02-28T03:30:57;99168.00;;;-3.50
7389;BMP180;3735;50.136;11.062;2023-02-28T03:33:32;99159.00;;;-3.50
7389;BMP180;3735;50.136;11.062;2023-02-28T03:36:07;99172.00;;;-3.50
7389;BMP180;3735;50.136;11.062;2023-02-28T03:38:48;99162.00;;;-3.50
7389;BMP180;3735;50.136;11.062;2023-02-28T03:41:22;99159.00;;;-3.50
7389;BMP180;3735;50.136;11.062;2023-02-28T03:43:56;99172.00;;;-3.40
7389;BMP180;3735;50.136;11.062;2023-02-28T03:46:27;99178.00;;;-3.50
7389;BMP180;3735;50.136;11.062;2023-02-28T03:49:16;99168.00;;;-3.40
7389;BMP180;3735;50.136;11.062;2023-02-28T03:51:47;99174.00;;;-3.50
7389;BMP180;3735;50.136;11.062;2023-02-28T03:54:44;99167.00;;;-3.40
7389;BMP180;3735;50.136;11.062;2023-02-28T03:57:25;99170.00;;;-3.50
7389;BMP180;3735;50.136;11.062;2023-02-28T04:00:14;99171.00;;;-3.40
7389;BMP180;3735;50.136;11.062;2023-02-28T04:02:42;99181.00;;;-3.40
7389;BMP180;3735;50.136;11.062;2023-02-28T04:05:08;99173.00;;;-3.50
7389;BMP180;3735;50.136;11.062;2023-02-28T04:07:34;99180.00;;;-3.40
7389;BMP180;3735;50.136;11.062;2023-02-28T04:10:00;99184.00;;;-3.40
7389;BMP180;3735;50.136;11.062;2023-02-28T04:12:26;99194.00;;;-3.40
7389;BMP180;3735;50.136;11.062;2023-02-28T04:14:52;99177.00;;;-3.30
7389;BMP180;3735;50.136;11.062;2023-02-28T04:17:18;99181.00;;;-3.30
7389;BMP180;3735;50.136;11.062;2023-02-28T04:19:44;99177.00;;;-3.30
7389;BMP180;3735;50.136;11.062;2023-02-28T04:22:10;99167.00;;;-3.20
7389;BMP180;3735;50.136;11.062;2023-02-28T04:24:36;99160.00;;;-3.20
7389;BMP180;3735;50.136;11.062;2023-02-28T04:27:03;99181.00;;;-3.20
7389;BMP180;3735;50.136;11.062;2023-02-28T04:29:31;99171.00;;;-3.20
7389;BMP180;3735;50.136;11.062;2023-02-28T04:31:59;99175.00;;;-3.20
7389;BMP180;3735;50.136;11.062;2023-02-28T04:34:27;99160.00;;;-3.30
7389;BMP180;3735;50.136;11.062;2023-02-28T04:36:54;99180.00;;;-3.20
7389;BMP180;3735;50.136;11.062;2023-02-28T04:39:22;99183.00;;;-3.20
7389;BMP180;3735;50.136;11.062;2023-02-28T04:41:49;99175.00;;;-3.10
7389;BMP180;3735;50.136;11.062;2023-02-28T04:44:15;99177.00;;;-3.20
7389;BMP180;3735;50.136;11.062;2023-02-28T04:46:42;99178.00;;;-3.10
7389;BMP180;3735;50.136;11.062;2023-02-28T04:49:11;99184.00;;;-3.10
7389;BMP180;3735;50.136;11.062;2023-02-28T04:51:37;99169.00;;;-3.10
7389;BMP180;3735;50.136;11.062;2023-02-28T04:54:03;99175.00;;;-3.10
7389;BMP180;3735;50.136;11.062;2023-02-28T04:56:29;99157.00;;;-3.20
7389;BMP180;3735;50.136;11.062;2023-02-28T04:58:55;99167.00;;;-3.20
7389;BMP180;3735;50.136;11.062;2023-02-28T05:01:32;99182.00;;;-3.20
7389;BMP180;3735;50.136;11.062;2023-02-28T05:04:01;99183.00;;;-3.20
7389;BMP180;3735;50.136;11.062;2023-02-28T05:06:31;99175.00;;;-3.20
7389;BMP180;3735;50.136;11.062;2023-02-28T05:08:57;99185.00;;;-3.00
7389;BMP180;3735;50.136;11.062;2023-02-28T05:11:30;99190.00;;;-2.90
7389;BMP180;3735;50.136;11.062;2023-02-28T05:14:05;99192.00;;;-2.90
7389;BMP180;3735;50.136;11.062;2023-02-28T05:16:32;99193.00;;;-2.90
7389;BMP180;3735;50.136;11.062;2023-02-28T05:18:59;99195.00;;;-2.90
7389;BMP180;3735;50.136;11.062;2023-02-28T05:21:30;99179.00;;;-2.90
7389;BMP180;3735;50.136;11.062;2023-02-28T05:24:04;99192.00;;;-2.90
7389;BMP180;3735;50.136;11.062;2023-02-28T05:26:34;99183.00;;;-2.90
7389;BMP180;3735;50.136;11.062;2023-02-28T05:29:00;99182.00;;;-2.90
7389;BMP180;3735;50.136;11.062;2023-02-28T05:31:26;99167.00;;;-2.90
7389;BMP180;3735;50.136;11.062;2023-02-28T05:33:52;99180.00;;;-2.90
7389;BMP180;3735;50.136;11.062;2023-02-28T05:36:17;99180.00;;;-2.90
7389;BMP180;3735;50.136;11.062;2023-02-28T05:38:47;99190.00;;;-2.90
7389;BMP180;3735;50.136;11.062;2023-02-28T05:41:14;99189.00;;;-2.90
7389;BMP180;3735;50.136;11.062;2023-02-28T05:43:40;99166.00;;;-2.80
7389;BMP180;3735;50.136;11.062;2023-02-28T05:46:08;99185.00;;;-2.90
7389;BMP180;3735;50.136;11.062;2023-02-28T05:48:36;99207.00;;;-2.90
7389;BMP180;3735;50.136;11.062;2023-02-28T05:51:03;99198.00;;;-2.90
7389;BMP180;3735;50.136;11.062;2023-02-28T05:53:30;99211.00;;;-2.80
7389;BMP180;3735;50.136;11.062;2023-02-28T05:55:56;99188.00;;;-2.80
7389;BMP180;3735;50.136;11.062;2023-02-28T05:58:23;99210.00;;;-2.70
7389;BMP180;3735;50.136;11.062;2023-02-28T06:00:51;99206.00;;;-2.60
7389;BMP180;3735;50.136;11.062;2023-02-28T06:03:17;99191.00;;;-2.70
7389;BMP180;3735;50.136;11.062;2023-02-28T06:05:42;99193.00;;;-2.60
7389;BMP180;3735;50.136;11.062;2023-02-28T06:08:08;99217.00;;;-2.60
7389;BMP180;3735;50.136;11.062;2023-02-28T06:10:35;99216.00;;;-2.50
7389;BMP180;3735;50.136;11.062;2023-02-28T06:13:04;99209.00;;;-2.40
7389;BMP180;3735;50.136;11.062;2023-02-28T06:15:31;99217.00;;;-2.40
7389;BMP180;3735;50.136;11.062;2023-02-28T06:17:57;99219.00;;;-2.40
7389;BMP180;3735;50.136;11.062;2023-02-28T06:20:26;99223.00;;;-2.30
7389;BMP180;3735;50.136;11.062;2023-02-28T06:22:56;99224.00;;;-2.30
7389;BMP180;3735;50.136;11.062;2023-02-28T06:25:26;99220.00;;;-2.20
7389;BMP180;3735;50.136;11.062;2023-02-28T06:27:52;99218.00;;;-2.20
7389;BMP180;3735;50.136;11.062;2023-02-28T06:30:18;99222.00;;;-2.20
7389;BMP180;3735;50.136;11.062;2023-02-28T06:32:43;99199.00;;;-2.20
7389;BMP180;3735;50.136;11.062;2023-02-28T06:35:09;99217.00;;;-2.10
7389;BMP180;3735;50.136;11.062;2023-02-28T06:37:35;99229.00;;;-2.10
7389;BMP180;3735;50.136;11.062;2023-02-28T06:40:02;99228.00;;;-2.10
7389;BMP180;3735;50.136;11.062;2023-02-28T06:42:28;99235.00;;;-2.10
7389;BMP180;3735;50.136;11.062;2023-02-28T06:44:56;99234.00;;;-2.00
7389;BMP180;3735;50.136;11.062;2023-02-28T06:47:22;99247.00;;;-2.00
7389;BMP180;3735;50.136;11.062;2023-02-28T06:49:48;99241.00;;;-2.00
7389;BMP180;3735;50.136;11.062;2023-02-28T06:52:15;99243.00;;;-2.10
7389;BMP180;3735;50.136;11.062;2023-02-28T06:54:41;99231.00;;;-1.90
7389;BMP180;3735;50.136;11.062;2023-02-28T06:57:07;99231.00;;;-1.90
7389;BMP180;3735;50.136;11.062;2023-02-28T06:59:33;99227.00;;;-1.90
7389;BMP180;3735;50.136;11.062;2023-02-28T07:02:00;99242.00;;;-1.80
7389;BMP180;3735;50.136;11.062;2023-02-28T07:04:28;99239.00;;;-1.70
7389;BMP180;3735;50.136;11.062;2023-02-28T07:06:55;99234.00;;;-1.70
7389;BMP180;3735;50.136;11.062;2023-02-28T07:09:22;99237.00;;;-1.60
7389;BMP180;3735;50.136;11.062;2023-02-28T07:11:48;99222.00;;;-1.50
7389;BMP180;3735;50.136;11.062;2023-02-28T07:14:14;99233.00;;;-1.20
7389;BMP180;3735;50.136;11.062;2023-02-28T07:16:40;99236.00;;;-1.00
7389;BMP180;3735;50.136;11.062;2023-02-28T07:19:06;99237.00;;;-0.70
7389;BMP180;3735;50.136;11.062;2023-02-28T07:21:31;99236.00;;;-0.60
7389;BMP180;3735;50.136;11.062;2023-02-28T07:23:57;99241.00;;;-0.20
7389;BMP180;3735;50.136;11.062;2023-02-28T07:26:23;99240.00;;;-0.20
7389;BMP180;3735;50.136;11.062;2023-02-28T07:28:49;99231.00;;;0.10
7389;BMP180;3735;50.136;11.062;2023-02-28T07:31:16;99222.00;;;0.20
7389;BMP180;3735;50.136;11.062;2023-02-28T07:33:43;99215.00;;;0.30
7389;BMP180;3735;50.136;11.062;2023-02-28T07:36:15;99239.00;;;0.50
7389;BMP180;3735;50.136;11.062;2023-02-28T07:38:47;99222.00;;;0.70
7389;BMP180;3735;50.136;11.062;2023-02-28T07:41:18;99226.00;;;0.70
7389;BMP180;3735;50.136;11.062;2023-02-28T07:43:45;99222.00;;;0.80
7389;BMP180;3735;50.136;11.062;2023-02-28T07:46:15;99227.00;;;0.90
7389;BMP180;3735;50.136;11.062;2023-02-28T07:48:42;99227.00;;;0.90
7389;BMP180;3735;50.136;11.062;2023-02-28T07:51:08;99229.00;;;1.00
7389;BMP180;3735;50.136;11.062;2023-02-28T07:53:34;99221.00;;;0.80
7389;BMP180;3735;50.136;11.062;2023-02-28T07:56:02;99222.00;;;1.00
7389;BMP180;3735;50.136;11.062;2023-02-28T07:58:30;99225.00;;;1.00
7389;BMP180;3735;50.136;11.062;2023-02-28T08:00:56;99221.00;;;1.10
7389;BMP180;3735;50.136;11.062;2023-02-28T08:03:23;99224.00;;;1.40
7389;BMP180;3735;50.136;11.062;2023-02-28T08:05:50;99221.00;;;1.70
7389;BMP180;3735;50.136;11.062;2023-02-28T08:08:20;99190.00;;;2.10
7389;BMP180;3735;50.136;11.062;2023-02-28T08:10:45;99219.00;;;2.40
7389;BMP180;3735;50.136;11.062;2023-02-28T08:13:11;99218.00;;;2.80
7389;BMP180;3735;50.136;11.062;2023-02-28T08:15:37;99213.00;;;3.30
7389;BMP180;3735;50.136;11.062;2023-02-28T08:18:03;99204.00;;;4.20
7389;BMP180;3735;50.136;11.062;2023-02-28T08:20:29;99202.00;;;4.00
7389;BMP180;3735;50.136;11.062;2023-02-28T08:22:54;99193.00;;;5.00
7389;BMP180;3735;50.136;11.062;2023-02-28T08:25:20;99190.00;;;6.20
7389;BMP180;3735;50.136;11.062;2023-02-28T08:27:51;99188.00;;;6.10
7389;BMP180;3735;50.136;11.062;2023-02-28T08:30:17;99183.00;;;6.60
7389;BMP180;3735;50.136;11.062;2023-02-28T08:32:43;99175.00;;;7.70
7389;BMP180;3735;50.136;11.062;2023-02-28T08:35:10;99168.00;;;7.90
7389;BMP180;3735;50.136;11.062;2023-02-28T08:37:36;99162.00;;;8.50
7389;BMP180;3735;50.136;11.062;2023-02-28T08:40:02;99135.00;;;9.00
7389;BMP180;3735;50.136;11.062;2023-02-28T08:42:29;99172.00;;;9.00
7389;BMP180;3735;50.136;11.062;2023-02-28T08:44:55;99159.00;;;9.80
7389;BMP180;3735;50.136;11.062;2023-02-28T08:47:21;99154.00;;;9.40
7389;BMP180;3735;50.136;11.062;2023-02-28T08:49:47;99154.00;;;9.60
7389;BMP180;3735;50.136;11.062;2023-02-28T08:52:13;99157.00;;;9.50
7389;BMP180;3735;50.136;11.062;2023-02-28T08:54:39;99158.00;;;9.10
7389;BMP180;3735;50.136;11.062;2023-02-28T08:57:05;99152.00;;;9.10
7389;BMP180;3735;50.136;11.062;2023-02-28T08:59:31;99151.00;;;8.30
7389;BMP180;3735;50.136;11.062;2023-02-28T09:01:57;99161.00;;;8.80
7389;BMP180;3735;50.136;11.062;2023-02-28T09:04:23;99158.00;;;8.60
7389;BMP180;3735;50.136;11.062;2023-02-28T09:06:49;99142.00;;;8.10
7389;BMP180;3735;50.136;11.062;2023-02-28T09:09:15;99158.00;;;8.50
7389;BMP180;3735;50.136;11.062;2023-02-28T09:11:41;99149.00;;;8.20
7389;BMP180;3735;50.136;11.062;2023-02-28T09:14:07;99160.00;;;8.50
7389;BMP180;3735;50.136;11.062;2023-02-28T09:16:33;99153.00;;;9.00
7389;BMP180;3735;50.136;11.062;2023-02-28T09:19:00;99152.00;;;9.80
7389;BMP180;3735;50.136;11.062;2023-02-28T09:21:26;99154.00;;;9.70
7389;BMP180;3735;50.136;11.062;2023-02-28T09:23:52;99166.00;;;10.00
7389;BMP180;3735;50.136;11.062;2023-02-28T09:26:26;99172.00;;;9.50
7389;BMP180;3735;50.136;11.062;2023-02-28T09:28:54;99159.00;;;9.00
7389;BMP180;3735;50.136;11.062;2023-02-28T09:31:24;99160.00;;;8.60
7389;BMP180;3735;50.136;11.062;2023-02-28T09:33:53;99165.00;;;8.40
7389;BMP180;3735;50.136;11.062;2023-02-28T09:36:21;99174.00;;;8.50
7389;BMP180;3735;50.136;11.062;2023-02-28T09:38:47;99156.00;;;8.80
7389;BMP180;3735;50.136;11.062;2023-02-28T09:41:23;99164.00;;;9.20
7389;BMP180;3735;50.136;11.062;2023-02-28T09:43:56;99162.00;;;10.20
7389;BMP180;3735;50.136;11.062;2023-02-28T09:48:58;99177.00;;;9.70
7389;BMP180;3735;50.136;11.062;2023-02-28T09:52:20;99185.00;;;8.10
7389;BMP180;3735;50.136;11.062;2023-02-28T09:54:47;99176.00;;;7.80
7389;BMP180;3735;50.136;11.062;2023-02-28T09:57:38;99170.00;;;8.60
7389;BMP180;3735;50.136;11.062;2023-02-28T10:05:51;99160.00;;;10.20
7389;BMP180;3735;50.136;11.062;2023-02-28T10:08:43;99158.00;;;9.90
7389;BMP180;3735;50.136;11.062;2023-02-28T10:11:17;99165.00;;;10.20
7389;BMP180;3735;50.136;11.062;2023-02-28T10:13:53;99172.00;;;10.50
7389;BMP180;3735;50.136;11.062;2023-02-28T10:16:40;99156.00;;;10.50
7389;BMP180;3735;50.136;11.062;2023-02-28T10:24:44;99170.00;;;10.20
7389;BMP180;3735;50.136;11.062;2023-02-28T10:27:21;99180.00;;;10.00
7389;BMP180;3735;50.136;11.062;2023-02-28T10:29:51;99181.00;;;9.10
7389;BMP180;3735;50.136;11.062;2023-02-28T10:32:22;99178.00;;;8.70
7389;BMP180;3735;50.136;11.062;2023-02-28T10:35:23;99185.00;;;9.30
7389;BMP180;3735;50.136;11.062;2023-02-28T10:37:55;99174.00;;;10.00
7389;BMP180;3735;50.136;11.062;2023-02-28T10:45:35;99177.00;;;10.70
7389;BMP180;3735;50.136;11.062;2023-02-28T10:48:05;99176.00;;;11.20
7389;BMP180;3735;50.136;11.062;2023-02-28T10:50:44;99177.00;;;10.50
7389;BMP180;3735;50.136;11.062;2023-02-28T10:58:57;99190.00;;;7.90
7389;BMP180;3735;50.136;11.062;2023-02-28T11:01:42;99185.00;;;8.40
7389;BMP180;3735;50.136;11.062;2023-02-28T11:07:22;99176.00;;;9.90
7389;BMP180;3735;50.136;11.062;2023-02-28T11:09:54;99175.00;;;9.90
7389;BMP180;3735;50.136;11.062;2023-02-28T11:12:36;99172.00;;;8.90
7389;BMP180;3735;50.136;11.062;2023-02-28T11:15:25;99177.00;;;9.10
7389;BMP180;3735;50.136;11.062;2023-02-28T11:18:22;99194.00;;;8.70
7389;BMP180;3735;50.136;11.062;2023-02-28T11:20:51;99173.00;;;8.60
7389;BMP180;3735;50.136;11.062;2023-02-28T11:23:20;99164.00;;;8.40
7389;BMP180;3735;50.136;11.062;2023-02-28T11:25:52;99172.00;;;9.70
7389;BMP180;3735;50.136;11.062;2023-02-28T11:28:41;99178.00;;;10.40
7389;BMP180;3735;50.136;11.062;2023-02-28T11:36:19;99169.00;;;10.50
7389;BMP180;3735;50.136;11.062;2023-02-28T11:38:47;99174.00;;;11.00
7389;BMP180;3735;50.136;11.062;2023-02-28T11:41:24;99162.00;;;10.90
7389;BMP180;3735;50.136;11.062;2023-02-28T11:47:07;99163.00;;;10.20
7389;BMP180;3735;50.136;11.062;2023-02-28T11:49:44;99167.00;;;11.10
7389;BMP180;3735;50.136;11.062;2023-02-28T11:52:53;99157.00;;;11.10
7389;BMP180;3735;50.136;11.062;2023-02-28T11:55:39;99160.00;;;11.50
7389;BMP180;3735;50.136;11.062;2023-02-28T11:58:41;99159.00;;;12.00
7389;BMP180;3735;50.136;11.062;2023-02-28T12:27:46;99143.00;;;11.20
7389;BMP180;3735;50.136;11.062;2023-02-28T12:30:31;99147.00;;;11.80
7389;BMP180;3735;50.136;11.062;2023-02-28T12:33:12;99146.00;;;12.00
7389;BMP180;3735;50.136;11.062;2023-02-28T12:35:52;99141.00;;;11.80
7389;BMP180;3735;50.136;11.062;2023-02-28T12:38:27;99140.00;;;11.70
7389;BMP180;3735;50.136;11.062;2023-02-28T12:41:23;99138.00;;;11.50
7389;BMP180;3735;50.136;11.062;2023-02-28T12:44:04;99141.00;;;11.20
7389;BMP180;3735;50.136;11.062;2023-02-28T12:46:41;99140.00;;;11.30
7389;BMP180;3735;50.136;11.062;2023-02-28T12:52:10;99137.00;;;10.90
7389;BMP180;3735;50.136;11.062;2023-02-28T12:55:14;99143.00;;;11.20
7389;BMP180;3735;50.136;11.062;2023-02-28T12:58:01;99129.00;;;11.20
7389;BMP180;3735;50.136;11.062;2023-02-28T13:00:38;99133.00;;;11.40
7389;BMP180;3735;50.136;11.062;2023-02-28T13:03:27;99134.00;;;11.90
7389;BMP180;3735;50.136;11.062;2023-02-28T13:09:08;99133.00;;;11.40
7389;BMP180;3735;50.136;11.062;2023-02-28T13:11:46;99140.00;;;11.00
7389;BMP180;3735;50.136;11.062;2023-02-28T13:14:27;99139.00;;;11.10
7389;BMP180;3735;50.136;11.062;2023-02-28T13:25:01;99142.00;;;12.30
7389;BMP180;3735;50.136;11.062;2023-02-28T13:27:39;99135.00;;;11.90
7389;BMP180;3735;50.136;11.062;2023-02-28T13:38:54;99128.00;;;11.40
7389;BMP180;3735;50.136;11.062;2023-02-28T13:44:21;99133.00;;;11.00
7389;BMP180;3735;50.136;11.062;2023-02-28T14:06:26;99116.00;;;11.20
7389;BMP180;3735;50.136;11.062;2023-02-28T14:11:50;99106.00;;;11.40
7389;BMP180;3735;50.136;11.062;2023-02-28T14:14:55;99108.00;;;11.30
7389;BMP180;3735;50.136;11.062;2023-02-28T14:17:22;99105.00;;;11.10
7389;BMP180;3735;50.136;11.062;2023-02-28T14:19:48;99110.00;;;11.00
7389;BMP180;3735;50.136;11.062;2023-02-28T14:23:04;99116.00;;;11.20
7389;BMP180;3735;50.136;11.062;2023-02-28T14:26:03;99104.00;;;10.50
7389;BMP180;3735;50.136;11.062;2023-02-28T14:29:12;99110.00;;;10.70
7389;BMP180;3735;50.136;11.062;2023-02-28T14:32:13;99095.00;;;11.10
7389;BMP180;3735;50.136;11.062;2023-02-28T14:34:50;99092.00;;;10.80
7389;BMP180;3735;50.136;11.062;2023-02-28T14:37:29;99101.00;;;10.30
7389;BMP180;3735;50.136;11.062;2023-02-28T14:39:59;99091.00;;;10.60
7389;BMP180;3735;50.136;11.062;2023-02-28T14:44:58;99104.00;;;10.90
7389;BMP180;3735;50.136;11.062;2023-02-28T14:47:31;99102.00;;;10.50
7389;BMP180;3735;50.136;11.062;2023-02-28T14:50:00;99103.00;;;10.60
7389;BMP180;3735;50.136;11.062;2023-02-28T14:52:33;99106.00;;;11.00
7389;BMP180;3735;50.136;11.062;2023-02-28T14:55:14;99099.00;;;11.00
7389;BMP180;3735;50.136;11.062;2023-02-28T14:57:51;99099.00;;;10.60
7389;BMP180;3735;50.136;11.062;2023-02-28T15:00:33;99092.00;;;10.80
7389;BMP180;3735;50.136;11.062;2023-02-28T15:03:01;99099.00;;;10.60
7389;BMP180;3735;50.136;11.062;2023-02-28T15:05:51;99100.00;;;10.70
7389;BMP180;3735;50.136;11.062;2023-02-28T15:08:18;99097.00;;;10.90
7389;BMP180;3735;50.136;11.062;2023-02-28T15:11:04;99096.00;;;11.10
7389;BMP180;3735;50.136;11.062;2023-02-28T15:13:52;99100.00;;;10.60
7389;BMP180;3735;50.136;11.062;2023-02-28T15:16:28;99100.00;;;10.10
7389;BMP180;3735;50.136;11.062;2023-02-28T15:19:00;99097.00;;;10.90
7389;BMP180;3735;50.136;11.062;2023-02-28T15:21:35;99092.00;;;10.80
7389;BMP180;3735;50.136;11.062;2023-02-28T15:24:21;99096.00;;;10.20
7389;BMP180;3735;50.136;11.062;2023-02-28T15:27:03;99094.00;;;10.50
7389;BMP180;3735;50.136;11.062;2023-02-28T15:29:33;99090.00;;;10.00
7389;BMP180;3735;50.136;11.062;2023-02-28T15:32:07;99085.00;;;10.00
7389;BMP180;3735;50.136;11.062;2023-02-28T15:34:42;99096.00;;;9.80
7389;BMP180;3735;50.136;11.062;2023-02-28T15:37:48;99109.00;;;8.50
7389;BMP180;3735;50.136;11.062;2023-02-28T15:40:43;99088.00;;;8.10
7389;BMP180;3735;50.136;11.062;2023-02-28T15:43:30;99111.00;;;6.80
7389;BMP180;3735;50.136;11.062;2023-02-28T15:46:06;99105.00;;;6.50
7389;BMP180;3735;50.136;11.062;2023-02-28T15:48:56;99115.00;;;6.00
7389;BMP180;3735;50.136;11.062;2023-02-28T15:51:40;99112.00;;;5.60
7389;BMP180;3735;50.136;11.062;2023-02-28T15:54:12;99120.00;;;5.20
7389;BMP180;3735;50.136;11.062;2023-02-28T15:56:46;99115.00;;;5.00
7389;BMP180;3735;50.136;11.062;2023-02-28T15:59:21;99123.00;;;4.70
7389;BMP180;3735;50.136;11.062;2023-02-28T16:02:15;99130.00;;;4.50
7389;BMP180;3735;50.136;11.062;2023-02-28T16:07:27;99140.00;;;4.30
7389;BMP180;3735;50.136;11.062;2023-02-28T16:09:53;99138.00;;;4.20
7389;BMP180;3735;50.136;11.062;2023-02-28T16:12:26;99138.00;;;4.00
7389;BMP180;3735;50.136;11.062;2023-02-28T16:14:54;99126.00;;;3.80
7389;BMP180;3735;50.136;11.062;2023-02-28T16:17:25;99144.00;;;3.80
7389;BMP180;3735;50.136;11.062;2023-02-28T16:19:51;99142.00;;;3.60
7389;BMP180;3735;50.136;11.062;2023-02-28T16:22:17;99139.00;;;3.60
7389;BMP180;3735;50.136;11.062;2023-02-28T16:24:43;99150.00;;;3.50
7389;BMP180;3735;50.136;11.062;2023-02-28T16:27:27;99143.00;;;3.40
7389;BMP180;3735;50.136;11.062;2023-02-28T16:29:54;99152.00;;;3.30
7389;BMP180;3735;50.136;11.062;2023-02-28T16:32:19;99124.00;;;3.20
7389;BMP180;3735;50.136;11.062;2023-02-28T16:34:46;99158.00;;;3.10
7389;BMP180;3735;50.136;11.062;2023-02-28T16:37:17;99151.00;;;3.10
7389;BMP180;3735;50.136;11.062;2023-02-28T16:39:45;99148.00;;;2.90
7389;BMP180;3735;50.136;11.062;2023-02-28T16:42:27;99150.00;;;2.80
7389;BMP180;3735;50.136;11.062;2023-02-28T16:44:54;99160.00;;;2.70
7389;BMP180;3735;50.136;11.062;2023-02-28T16:47:22;99163.00;;;2.60
7389;BMP180;3735;50.136;11.062;2023-02-28T16:49:47;99153.00;;;2.60
7389;BMP180;3735;50.136;11.062;2023-02-28T16:52:14;99157.00;;;2.50
7389;BMP180;3735;50.136;11.062;2023-02-28T16:54:41;99167.00;;;2.40
7389;BMP180;3735;50.136;11.062;2023-02-28T16:57:20;99176.00;;;2.40
7389;BMP180;3735;50.136;11.062;2023-02-28T16:59:48;99176.00;;;2.20
7389;BMP180;3735;50.136;11.062;2023-02-28T17:02:18;99179.00;;;2.20
7389;BMP180;3735;50.136;11.062;2023-02-28T17:04:45;99184.00;;;2.00
7389;BMP180;3735;50.136;11.062;2023-02-28T17:07:14;99193.00;;;2.00
7389;BMP180;3735;50.136;11.062;2023-02-28T17:09:42;99198.00;;;2.00
7389;BMP180;3735;50.136;11.062;2023-02-28T17:12:09;99189.00;;;1.90
7389;BMP180;3735;50.136;11.062;2023-02-28T17:14:37;99193.00;;;1.80
7389;BMP180;3735;50.136;11.062;2023-02-28T17:17:05;99192.00;;;1.80
7389;BMP180;3735;50.136;11.062;2023-02-28T17:19:31;99197.00;;;1.60
7389;BMP180;3735;50.136;11.062;2023-02-28T17:21:57;99198.00;;;1.60